Terminal Aerodrome Forecast
Issued by NWS Austin/San Antonio, TX

Home | Current Version | Previous Version | Text Only | Print | Product List | Glossary On
Versions: 1 2 3 4 5 6 7 8 9 10 11 12 13 14 15 16 17 18 19 20 21
297
FTUS44 KEWX 171139
TAFDRT
TAF
KDRT 171139Z 1712/1812 28007KT P6SM -SHRA BKN019 BKN045 OVC070
     FM171600 33007KT 5SM -DZ OVC007
     FM180600 32005KT 6SM -DZ BR OVC012=

USA.gov is the U.S. government's official web portal to all federal, state and local government web resources and services.